Time;durP1;ratioP1;P1;durP2;ratioP2;P2;SDS_P1;SDS_P2;PMS_P1;PMS_P2;Temp;Humidity;BMP_temperature;BMP_pressure;BME280_temperature;BME280_humidity;BME280_pressure;Samples;Min_cycle;Max_cycle;Signal;HPM_P1;HPM_P2
2023/06/26 00:11:47;;;;;;;7.90;6.25;;;17.20;99.90;;;;;;2600808;54;20018;31
2023/06/26 01:57:53;;;;;;;10.95;8.38;;;16.20;99.90;;;;;;2603890;54;21117;31
2023/06/26 02:14:25;;;;;;;9.50;7.00;;;16.00;99.90;;;;;;2601180;54;20926;31
2023/06/26 02:17:26;;;;;;;9.10;7.30;;;16.00;99.90;;;;;;2603579;54;20092;31
2023/06/26 03:04:00;;;;;;;10.32;5.90;;;15.70;99.90;;;;;;2603126;46;20576;31
2023/06/26 03:10:57;;;;;;;8.05;5.70;;;15.70;99.90;;;;;;2602906;46;21123;31
2023/06/26 03:20:41;;;;;;;7.10;5.90;;;15.80;99.90;;;;;;2603050;54;19949;31
2023/06/26 03:23:25;;;;;;;12.13;7.70;;;15.80;99.90;;;;;;2603382;54;20030;31
2023/06/26 03:26:05;;;;;;;13.60;7.70;;;15.90;99.90;;;;;;2620786;46;20022;31
2023/06/26 04:36:18;;;;;;;13.55;7.65;;;20.30;99.90;;;;;;2602892;54;20922;31
2023/06/26 04:39:04;;;;;;;10.77;8.20;;;20.50;99.90;;;;;;2603165;54;20033;31
2023/06/26 04:45:10;;;;;;;10.18;7.85;;;20.80;99.90;;;;;;2773177;31;20569;31
2023/06/26 04:48:12;;;;;;;13.50;7.47;;;21.00;99.90;;;;;;2602868;54;20928;31
2023/06/26 04:51:04;;;;;;;15.63;8.60;;;21.20;99.90;;;;;;2621839;46;20022;31
2023/06/26 04:53:56;;;;;;;13.85;8.13;;;21.40;99.90;;;;;;2621458;46;20030;31
2023/06/26 04:56:59;;;;;;;14.50;9.10;;;21.50;99.90;;;;;;2603213;54;20876;31
2023/06/26 05:03:01;;;;;;;12.48;7.93;;;21.80;99.90;;;;;;2602416;54;20018;31
2023/06/26 05:28:12;;;;;;;10.37;7.40;;;23.70;99.90;;;;;;2620748;47;20923;31
2023/06/26 05:40:09;;;;;;;12.15;6.68;;;24.40;99.90;;;;;;2601096;54;20027;31
2023/06/26 05:42:51;;;;;;;10.68;7.13;;;24.70;99.90;;;;;;2602794;54;20882;31
2023/06/26 05:45:50;;;;;;;13.00;7.80;;;24.90;99.90;;;;;;2602872;54;20023;31
2023/06/26 05:58:12;;;;;;;10.73;7.57;;;25.40;99.90;;;;;;2601230;54;20018;31
2023/06/26 06:04:38;;;;;;;10.50;7.25;;;25.80;99.90;;;;;;2603002;54;20027;31
2023/06/26 06:07:12;;;;;;;12.05;7.10;;;26.00;99.90;;;;;;2701199;39;21482;31
2023/06/26 06:10:04;;;;;;;11.30;6.88;;;26.20;99.90;;;;;;2602230;54;20026;31
2023/06/26 06:13:13;;;;;;;10.77;6.73;;;26.30;99.90;;;;;;2602898;54;20022;31
2023/06/26 06:16:02;;;;;;;11.30;7.43;;;26.40;99.90;;;;;;2621033;47;20246;31
2023/06/26 06:18:43;;;;;;;8.55;6.32;;;26.50;99.90;;;;;;2602958;54;20027;31
2023/06/26 06:21:23;;;;;;;9.00;5.85;;;26.70;99.90;;;;;;2603048;54;20022;31
2023/06/26 06:32:50;;;;;;;7.03;5.80;;;27.50;99.90;;;;;;2602876;54;20956;31
2023/06/26 06:35:29;;;;;;;11.45;5.90;;;27.70;99.90;;;;;;2622014;46;21192;31
2023/06/26 06:38:06;;;;;;;9.23;5.45;;;27.90;99.90;;;;;;2602781;54;20034;31
2023/06/26 06:40:42;;;;;;;11.15;6.30;;;28.00;99.90;;;;;;2622083;46;20772;31
2023/06/26 06:43:24;;;;;;;7.50;5.35;;;28.10;99.90;;;;;;2603937;54;20037;31
2023/06/26 06:46:00;;;;;;;11.02;6.07;;;28.20;99.90;;;;;;2604041;54;20789;31
2023/06/26 06:51:30;;;;;;;8.93;6.27;;;28.50;99.90;;;;;;2622471;46;20030;31
2023/06/26 06:54:08;;;;;;;9.77;5.10;;;28.70;99.90;;;;;;2603766;54;20072;31
2023/06/26 06:56:46;;;;;;;9.43;5.28;;;28.90;99.90;;;;;;2622114;46;20568;31
2023/06/26 06:59:28;;;;;;;8.75;5.35;;;29.10;99.90;;;;;;2603793;54;20475;31
2023/06/26 07:02:08;;;;;;;8.65;5.05;;;29.10;99.90;;;;;;2622163;46;20580;31
2023/06/26 07:04:44;;;;;;;10.45;4.80;;;29.30;99.90;;;;;;2622427;46;20861;31
2023/06/26 07:07:23;;;;;;;9.90;4.93;;;29.40;99.90;;;;;;2622083;46;20027;31
2023/06/26 07:10:03;;;;;;;6.75;5.00;;;29.60;99.90;;;;;;2622208;46;20445;31
2023/06/26 07:12:44;;;;;;;8.23;5.65;;;29.70;99.90;;;;;;2702307;39;21102;31
2023/06/26 07:15:25;;;;;;;7.93;4.90;;;29.80;99.90;;;;;;2603744;54;20031;31
2023/06/26 07:18:02;;;;;;;5.50;4.63;;;29.90;99.90;;;;;;2603713;54;20880;31
2023/06/26 07:20:42;;;;;;;9.60;5.10;;;30.20;99.90;;;;;;2702075;39;20505;31
2023/06/26 07:23:20;;;;;;;5.15;4.65;;;30.20;99.90;;;;;;2603508;54;20269;31
2023/06/26 07:25:54;;;;;;;9.00;4.88;;;30.30;99.90;;;;;;2603602;54;20883;31
2023/06/26 07:28:37;;;;;;;7.43;5.32;;;30.30;99.90;;;;;;2603782;54;20148;31
2023/06/26 07:31:16;;;;;;;5.95;4.10;;;30.40;99.90;;;;;;2603480;54;20143;31
2023/06/26 07:33:56;;;;;;;6.13;4.60;;;30.50;99.90;;;;;;2603590;54;20026;31
2023/06/26 07:36:37;;;;;;;9.05;4.60;;;30.80;99.90;;;;;;2603512;54;20940;31
2023/06/26 07:39:20;;;;;;;5.45;4.30;;;31.00;99.90;;;;;;2602810;54;20759;31
2023/06/26 07:42:01;;;;;;;7.63;4.50;;;31.00;99.90;;;;;;2602856;54;20912;31
2023/06/26 07:44:52;;;;;;;;;;;;;;;;;;;;;
2023/06/26 07:47:44;;;;;;;7.20;4.53;;;31.20;99.90;;;;;;2603490;54;20573;31
2023/06/26 07:50:27;;;;;;;7.40;4.70;;;31.30;99.90;;;;;;2720483;39;20477;31
2023/06/26 07:53:08;;;;;;;8.75;4.30;;;31.40;99.90;;;;;;2603635;54;20027;31
2023/06/26 07:55:46;;;;;;;5.43;4.13;;;31.50;99.90;;;;;;2603280;54;20026;31
2023/06/26 07:58:35;;;;;;;5.88;4.40;;;31.60;99.90;;;;;;2603120;54;20027;31
2023/06/26 08:01:15;;;;;;;4.88;3.92;;;31.60;99.90;;;;;;2603476;54;20030;31
2023/06/26 08:03:58;;;;;;;5.07;3.70;;;31.80;99.70;;;;;;2603413;54;20034;31
2023/06/26 08:06:54;;;;;;;6.25;4.35;;;31.80;98.50;;;;;;2603469;54;20052;31
2023/06/26 08:09:44;;;;;;;10.40;4.35;;;32.00;98.90;;;;;;2720401;39;20438;31
2023/06/26 08:12:22;;;;;;;6.85;4.15;;;32.00;97.80;;;;;;2603588;54;20033;31
2023/06/26 08:14:57;;;;;;;5.15;4.03;;;32.10;96.30;;;;;;2621574;46;20031;31
2023/06/26 08:17:39;;;;;;;7.57;4.22;;;32.20;96.80;;;;;;2603383;54;20620;31
2023/06/26 08:20:23;;;;;;;4.40;3.87;;;32.20;96.00;;;;;;2603440;54;20026;31
2023/06/26 08:23:08;;;;;;;6.45;3.83;;;32.20;95.00;;;;;;2603433;54;20600;31
2023/06/26 08:25:44;;;;;;;7.07;4.10;;;32.30;95.90;;;;;;2603292;54;20030;31
2023/06/26 08:28:20;;;;;;;6.90;3.75;;;32.40;96.00;;;;;;2603379;54;20560;31
2023/06/26 08:30:59;;;;;;;4.43;3.95;;;32.40;95.40;;;;;;2603493;54;20026;31
2023/06/26 08:33:36;;;;;;;6.57;4.22;;;32.50;94.60;;;;;;2603175;54;20770;31
2023/06/26 08:36:16;;;;;;;7.65;4.05;;;32.80;94.30;;;;;;2621688;46;20885;31
2023/06/26 08:38:55;;;;;;;5.32;3.58;;;32.70;91.90;;;;;;2621768;46;19935;31
2023/06/26 08:41:32;;;;;;;8.43;4.03;;;32.80;92.80;;;;;;2603311;54;20034;31
2023/06/26 08:44:11;;;;;;;3.90;3.50;;;32.70;91.80;;;;;;2701805;39;20410;31
2023/06/26 08:49:34;;;;;;;4.32;3.65;;;32.90;90.80;;;;;;2603234;54;20506;31
2023/06/26 08:52:16;;;;;;;4.80;4.10;;;32.90;89.90;;;;;;2603396;54;21853;31
2023/06/26 08:55:01;;;;;;;4.97;3.65;;;33.00;88.10;;;;;;2603193;54;20238;31
2023/06/26 08:57:42;;;;;;;5.60;3.50;;;33.10;86.30;;;;;;2603486;54;20034;31
2023/06/26 09:00:30;;;;;;;5.75;3.38;;;33.20;90.10;;;;;;2603195;54;20897;31
2023/06/26 09:05:51;;;;;;;4.10;3.55;;;33.00;89.50;;;;;;2603365;54;20592;31
2023/06/26 09:08:43;;;;;;;7.80;3.95;;;33.10;89.00;;;;;;2621833;46;20038;31
2023/06/26 09:11:23;;;;;;;4.30;3.90;;;33.20;84.20;;;;;;2603120;54;20085;31
2023/06/26 09:14:04;;;;;;;3.78;3.15;;;33.10;84.40;;;;;;2701527;39;20485;31
2023/06/26 09:16:48;;;;;;;6.25;3.50;;;33.20;83.70;;;;;;2602326;54;20867;31
2023/06/26 09:19:31;;;;;;;5.30;3.50;;;33.30;87.30;;;;;;2603320;54;20053;31
2023/06/26 09:22:16;;;;;;;3.70;3.30;;;33.30;83.10;;;;;;2603221;54;20057;31
2023/06/26 09:24:53;;;;;;;4.15;3.30;;;33.30;83.00;;;;;;2603135;54;20026;31
2023/06/26 09:27:34;;;;;;;5.93;3.70;;;33.40;80.80;;;;;;2701705;39;20379;31
2023/06/26 09:30:13;;;;;;;3.83;3.42;;;33.20;79.70;;;;;;2701724;39;20462;31
2023/06/26 09:32:50;;;;;;;6.05;3.38;;;33.20;79.70;;;;;;2603322;54;20026;31
2023/06/26 09:35:31;;;;;;;4.35;3.10;;;33.30;78.50;;;;;;2602834;54;20053;31
2023/06/26 09:38:09;;;;;;;5.38;2.90;;;33.30;84.10;;;;;;2603221;54;20659;31
2023/06/26 09:40:45;;;;;;;4.95;2.90;;;33.30;79.00;;;;;;2621525;47;20085;31
2023/06/26 09:46:53;;;;;;;4.83;3.27;;;33.30;80.80;;;;;;2603067;54;20037;31
2023/06/26 09:49:33;;;;;;;3.50;3.10;;;33.50;79.70;;;;;;2701800;39;21086;31
2023/06/26 09:58:53;;;;;;;4.15;2.80;;;33.00;80.30;;;;;;2621697;47;20027;31
2023/06/26 10:01:28;;;;;;;4.47;3.17;;;32.60;79.00;;;;;;2602839;54;20026;31
2023/06/26 10:04:09;;;;;;;7.10;3.85;;;32.30;81.50;;;;;;2603275;54;20793;31
2023/06/26 10:06:49;;;;;;;7.15;4.13;;;32.00;83.50;;;;;;2603818;54;20031;31
2023/06/26 10:09:25;;;;;;;4.28;3.85;;;31.90;83.80;;;;;;2622286;46;20077;31
2023/06/26 10:12:10;;;;;;;4.60;3.40;;;31.80;83.00;;;;;;2603563;54;20870;31
2023/06/26 10:17:31;;;;;;;5.10;3.20;;;32.20;85.00;;;;;;2702560;39;20512;31
2023/06/26 10:20:16;;;;;;;3.93;3.10;;;32.30;82.50;;;;;;2602882;54;20585;31
2023/06/26 10:23:23;;;;;;;4.50;3.75;;;32.40;85.00;;;;;;2604052;54;20027;31
2023/06/26 10:26:01;;;;;;;5.18;3.15;;;32.50;81.20;;;;;;2702088;39;21513;31
2023/06/26 10:28:54;;;;;;;;;;;;;;;;;;;;;
2023/06/26 10:31:45;;;;;;;7.90;3.20;;;32.60;82.00;;;;;;2603922;54;20596;31
2023/06/26 10:34:21;;;;;;;5.47;3.38;;;32.70;81.90;;;;;;2603654;54;20898;31
2023/06/26 10:37:06;;;;;;;5.87;3.20;;;32.70;83.10;;;;;;2603633;54;21476;31
2023/06/26 10:39:49;;;;;;;4.25;3.15;;;32.80;82.90;;;;;;2621914;46;19934;31
2023/06/26 10:42:37;;;;;;;5.22;3.03;;;32.80;78.70;;;;;;2603682;54;20724;31
2023/06/26 10:45:17;;;;;;;4.03;3.50;;;32.90;80.60;;;;;;2603834;54;20026;31
2023/06/26 10:47:57;;;;;;;4.70;3.10;;;32.70;79.90;;;;;;2603795;54;21309;31
2023/06/26 10:50:38;;;;;;;6.05;3.38;;;32.70;82.90;;;;;;2603580;54;20964;31
2023/06/26 10:53:34;;;;;;;3.35;3.05;;;32.80;82.30;;;;;;2602981;54;20030;31
2023/06/26 10:59:23;;;;;;;5.82;3.00;;;32.60;84.10;;;;;;2603868;54;19934;31
2023/06/26 11:02:09;;;;;;;4.05;3.30;;;32.60;83.70;;;;;;2603759;54;20893;31
2023/06/26 11:04:48;;;;;;;3.75;2.95;;;32.60;81.10;;;;;;2622004;46;20560;31
2023/06/26 11:07:24;;;;;;;3.53;2.97;;;32.70;80.90;;;;;;2603524;54;20027;31
2023/06/26 11:10:04;;;;;;;3.42;3.13;;;32.50;79.70;;;;;;2603495;54;20049;31
2023/06/26 11:12:44;;;;;;;4.50;3.17;;;32.40;78.60;;;;;;2603650;54;20030;31
2023/06/26 11:15:21;;;;;;;4.82;3.50;;;32.50;79.50;;;;;;2603671;54;20057;31
2023/06/26 11:17:58;;;;;;;5.22;3.17;;;32.50;80.20;;;;;;2603617;54;20030;31
2023/06/26 11:20:38;;;;;;;3.58;2.92;;;32.60;85.80;;;;;;2622103;46;20988;31
2023/06/26 11:23:20;;;;;;;4.50;3.53;;;32.70;80.70;;;;;;2621704;46;20105;31
2023/06/26 11:26:17;;;;;;;5.30;3.10;;;32.80;83.00;;;;;;2602804;54;20770;31
2023/06/26 11:29:00;;;;;;;6.30;3.78;;;32.90;82.50;;;;;;2603478;54;20053;31
2023/06/26 11:31:38;;;;;;;7.10;3.50;;;32.90;82.50;;;;;;2701935;39;20378;31
2023/06/26 11:34:18;;;;;;;3.57;3.23;;;32.90;82.20;;;;;;2603549;54;20049;31
2023/06/26 11:36:53;;;;;;;3.50;3.20;;;32.90;83.60;;;;;;2603525;54;20106;31
2023/06/26 11:39:31;;;;;;;3.35;3.05;;;32.90;81.40;;;;;;2622005;46;20026;31
2023/06/26 11:42:21;;;;;;;4.53;3.30;;;32.90;83.50;;;;;;2603507;54;20052;31
2023/06/26 11:45:02;;;;;;;3.55;2.83;;;32.90;78.50;;;;;;2603403;54;20807;31
2023/06/26 11:47:41;;;;;;;4.15;3.30;;;32.70;80.70;;;;;;2603644;54;21346;31
2023/06/26 11:50:15;;;;;;;3.30;2.83;;;32.50;81.00;;;;;;2791580;31;25038;31
2023/06/26 11:52:57;;;;;;;9.43;3.30;;;32.40;79.00;;;;;;2603623;54;20912;31
2023/06/26 11:55:45;;;;;;;4.82;3.10;;;32.30;82.80;;;;;;2621758;46;20034;31
2023/06/26 11:58:28;;;;;;;4.28;3.10;;;32.30;81.90;;;;;;2603229;54;20121;31
2023/06/26 12:03:39;;;;;;;9.00;3.38;;;32.00;80.00;;;;;;2603547;54;20026;31
2023/06/26 12:06:17;;;;;;;3.47;2.97;;;31.80;78.90;;;;;;2603705;54;20917;31
2023/06/26 12:08:53;;;;;;;4.13;2.67;;;31.70;79.80;;;;;;2602711;54;20031;31
2023/06/26 12:11:30;;;;;;;3.75;3.40;;;31.60;82.20;;;;;;2603264;54;20858;31
2023/06/26 12:14:14;;;;;;;3.55;3.05;;;31.70;86.90;;;;;;2603648;54;20027;31
2023/06/26 12:17:32;;;;;;;3.58;3.25;;;31.70;83.00;;;;;;2603581;54;20859;31
2023/06/26 12:23:00;;;;;;;6.87;3.03;;;31.80;83.40;;;;;;2603266;54;20935;31
2023/06/26 12:25:40;;;;;;;3.95;3.05;;;31.60;83.10;;;;;;2603499;54;20966;31
2023/06/26 12:28:20;;;;;;;3.50;2.58;;;31.60;82.60;;;;;;2603133;54;20089;31
2023/06/26 12:31:14;;;;;;;4.30;2.78;;;31.50;84.80;;;;;;2603471;54;20030;31
2023/06/26 12:33:55;;;;;;;4.10;2.80;;;31.50;82.70;;;;;;2603488;54;20030;31
2023/06/26 12:36:39;;;;;;;3.87;3.37;;;31.50;82.00;;;;;;2603479;54;20022;31
2023/06/26 12:39:15;;;;;;;3.30;3.00;;;31.50;81.70;;;;;;2603210;54;20053;31
2023/06/26 12:41:55;;;;;;;2.97;2.67;;;31.50;81.10;;;;;;2603222;54;20875;31
2023/06/26 12:44:34;;;;;;;5.65;3.00;;;31.50;83.30;;;;;;2621899;46;20022;31
2023/06/26 12:47:13;;;;;;;3.15;2.83;;;31.50;82.40;;;;;;2603351;54;20030;31
2023/06/26 12:49:54;;;;;;;3.65;2.78;;;31.50;83.20;;;;;;2621680;46;20588;31
2023/06/26 12:52:33;;;;;;;2.88;2.65;;;31.50;82.80;;;;;;2603503;54;20036;31
2023/06/26 12:55:11;;;;;;;9.25;4.28;;;31.50;84.00;;;;;;2702001;39;20995;31
2023/06/26 12:57:48;;;;;;;3.40;2.88;;;31.60;83.80;;;;;;2621924;46;20104;31
2023/06/26 13:00:25;;;;;;;3.83;2.80;;;31.50;82.20;;;;;;2603275;54;20038;31
2023/06/26 13:03:01;;;;;;;5.60;2.60;;;31.30;81.70;;;;;;2603223;54;20034;31
2023/06/26 13:05:43;;;;;;;3.08;2.78;;;31.40;85.80;;;;;;2602994;54;20109;31
2023/06/26 13:08:23;;;;;;;5.00;2.57;;;31.40;85.70;;;;;;2621559;46;20030;31
2023/06/26 13:10:59;;;;;;;2.80;2.50;;;31.40;84.50;;;;;;2603020;54;20864;31
2023/06/26 13:13:38;;;;;;;2.85;2.47;;;31.20;85.40;;;;;;2621458;46;20516;31
2023/06/26 13:16:14;;;;;;;4.25;2.88;;;31.20;85.30;;;;;;2603138;54;20030;31
2023/06/26 13:18:51;;;;;;;3.28;2.80;;;31.10;84.40;;;;;;2621528;46;20034;31
2023/06/26 13:21:29;;;;;;;3.13;2.87;;;31.10;83.90;;;;;;2603145;54;20026;31
2023/06/26 13:24:12;;;;;;;2.55;2.35;;;31.10;84.90;;;;;;2603204;54;21009;31
2023/06/26 13:26:48;;;;;;;3.70;2.70;;;31.00;84.20;;;;;;2701762;39;20390;31
2023/06/26 13:29:25;;;;;;;3.45;2.50;;;31.20;83.60;;;;;;2602347;54;20041;31
2023/06/26 13:32:01;;;;;;;4.65;3.25;;;31.20;84.90;;;;;;2603115;54;20030;31
2023/06/26 13:34:41;;;;;;;2.95;2.67;;;31.20;83.80;;;;;;2603311;54;20027;31
2023/06/26 13:37:17;;;;;;;6.40;3.03;;;31.10;82.70;;;;;;2603185;54;20037;31
2023/06/26 13:39:55;;;;;;;;;;;31.10;84.40;;;;;;2603877;54;20913;31
2023/06/26 13:42:34;;;;;;;3.27;2.90;;;31.10;86.50;;;;;;2603597;54;19934;31
2023/06/26 13:45:17;;;;;;;3.08;2.50;;;31.20;86.00;;;;;;2604063;54;21071;31
2023/06/26 13:48:06;;;;;;;7.22;2.92;;;31.20;85.90;;;;;;2604038;54;19939;31
2023/06/26 13:50:43;;;;;;;3.70;2.80;;;31.20;86.80;;;;;;2604050;54;20837;31
2023/06/26 13:53:33;;;;;;;4.15;3.00;;;31.20;86.60;;;;;;2622249;46;20578;31
2023/06/26 13:56:13;;;;;;;4.37;2.90;;;31.20;84.90;;;;;;2603951;54;20022;31
2023/06/26 13:58:48;;;;;;;3.17;2.60;;;31.10;85.30;;;;;;2603916;54;20577;31
2023/06/26 14:01:27;;;;;;;6.28;2.70;;;31.10;84.80;;;;;;2702627;39;21030;31
2023/06/26 14:04:03;;;;;;;4.50;3.05;;;31.20;88.20;;;;;;2622302;46;20042;31
2023/06/26 14:06:45;;;;;;;3.38;2.90;;;31.10;85.40;;;;;;2603966;54;20030;31
2023/06/26 14:09:24;;;;;;;3.08;2.55;;;31.20;86.30;;;;;;2622340;46;20026;31
2023/06/26 14:12:04;;;;;;;2.80;2.30;;;31.20;87.60;;;;;;2622228;46;20030;31
2023/06/26 14:14:47;;;;;;;3.58;2.70;;;31.20;85.10;;;;;;2603790;54;20238;31
2023/06/26 14:17:31;;;;;;;2.90;2.70;;;31.10;87.20;;;;;;2622292;46;20682;31
2023/06/26 14:20:12;;;;;;;3.95;2.22;;;31.10;84.80;;;;;;2603767;54;20238;31
2023/06/26 14:22:52;;;;;;;5.53;2.50;;;31.00;86.80;;;;;;2621660;46;20968;31
2023/06/26 14:25:29;;;;;;;4.00;2.78;;;30.90;85.20;;;;;;2604008;54;20030;31
2023/06/26 14:28:08;;;;;;;4.05;2.50;;;30.90;86.90;;;;;;2603758;54;20813;31
2023/06/26 14:30:45;;;;;;;2.92;2.65;;;30.90;86.50;;;;;;2621953;46;19957;31
2023/06/26 14:33:23;;;;;;;6.07;3.15;;;30.90;87.50;;;;;;2603819;54;20891;31
2023/06/26 14:36:00;;;;;;;2.75;2.55;;;30.90;86.40;;;;;;2602889;54;20792;31
2023/06/26 14:38:37;;;;;;;2.70;2.40;;;30.80;85.90;;;;;;2603539;54;20663;31
2023/06/26 14:41:18;;;;;;;2.92;2.55;;;30.80;87.50;;;;;;2622127;46;20030;31
2023/06/26 14:43:58;;;;;;;4.88;2.83;;;30.90;86.70;;;;;;2622165;46;20023;31
2023/06/26 14:46:34;;;;;;;2.85;2.33;;;30.90;86.00;;;;;;2621942;46;20085;31
2023/06/26 14:49:27;;;;;;;3.30;2.63;;;30.80;86.10;;;;;;2603284;54;20085;31
2023/06/26 14:55:31;;;;;;;5.07;2.95;;;30.80;89.00;;;;;;2612326;54;20620;31
2023/06/26 15:01:11;;;;;;;4.17;2.70;;;30.80;85.20;;;;;;2602808;54;19946;31
2023/06/26 15:03:51;;;;;;;2.80;2.45;;;30.80;87.40;;;;;;2608170;46;20792;31
2023/06/26 15:06:30;;;;;;;3.85;2.55;;;30.80;86.10;;;;;;2720649;39;20471;31
2023/06/26 15:09:09;;;;;;;2.90;2.60;;;30.80;87.60;;;;;;2603613;54;20043;31
2023/06/26 15:11:44;;;;;;;3.25;2.90;;;30.70;86.50;;;;;;2622117;46;20550;31
2023/06/26 15:14:21;;;;;;;;;;;30.70;87.30;;;;;;2622352;46;20144;31
2023/06/26 15:16:56;;;;;;;3.10;2.35;;;30.70;86.70;;;;;;2621612;46;20686;31
2023/06/26 15:19:37;;;;;;;3.33;2.75;;;30.70;87.00;;;;;;2621870;46;21438;31
2023/06/26 15:22:16;;;;;;;5.25;2.63;;;30.60;87.50;;;;;;2603680;54;20101;31
2023/06/26 15:24:59;;;;;;;5.35;2.95;;;30.70;89.50;;;;;;2702100;39;20474;31
2023/06/26 15:27:36;;;;;;;4.40;2.60;;;30.70;88.40;;;;;;2603614;54;20573;31
2023/06/26 15:30:18;;;;;;;3.58;2.53;;;30.80;88.00;;;;;;2603718;54;21476;31
2023/06/26 15:32:53;;;;;;;4.77;2.80;;;30.70;89.40;;;;;;2603288;54;20853;31
2023/06/26 15:35:32;;;;;;;4.60;2.70;;;30.70;88.20;;;;;;2603693;54;20033;31
2023/06/26 15:38:10;;;;;;;3.63;2.92;;;30.70;88.30;;;;;;2603563;54;20050;31
2023/06/26 15:40:46;;;;;;;5.43;2.88;;;30.70;88.20;;;;;;2602872;54;20050;31
2023/06/26 15:43:23;;;;;;;3.75;2.65;;;30.60;89.70;;;;;;2621725;46;20471;31
2023/06/26 15:46:00;;;;;;;3.10;2.80;;;30.70;89.80;;;;;;2603730;54;20917;31
2023/06/26 15:48:41;;;;;;;3.30;3.00;;;30.60;88.60;;;;;;2621913;46;20039;31
2023/06/26 15:51:20;;;;;;;4.70;2.78;;;30.60;90.30;;;;;;2603550;54;20027;31
2023/06/26 15:53:57;;;;;;;3.40;2.92;;;30.50;88.20;;;;;;2622074;46;20109;31
2023/06/26 15:56:32;;;;;;;4.20;2.90;;;30.50;89.70;;;;;;2621668;46;20056;31
2023/06/26 15:59:10;;;;;;;3.33;3.03;;;30.40;89.30;;;;;;2603445;54;20096;31
2023/06/26 16:01:48;;;;;;;3.47;2.95;;;30.40;89.70;;;;;;2621855;46;20089;31
2023/06/26 16:04:25;;;;;;;2.80;2.50;;;30.40;90.00;;;;;;2603581;54;20038;31
2023/06/26 16:07:03;;;;;;;3.50;2.65;;;30.30;89.80;;;;;;2621803;46;20077;31
2023/06/26 16:09:39;;;;;;;4.13;3.00;;;30.20;89.50;;;;;;2603648;54;20853;31
2023/06/26 16:12:15;;;;;;;3.25;2.95;;;30.10;89.10;;;;;;2621875;46;20830;31
2023/06/26 16:14:56;;;;;;;3.90;2.97;;;30.10;89.50;;;;;;2603001;39;20092;31
2023/06/26 16:17:32;;;;;;;4.43;3.00;;;30.00;90.10;;;;;;2600973;54;20917;31
2023/06/26 16:20:10;;;;;;;4.25;2.90;;;29.90;89.60;;;;;;2622086;46;20033;31
2023/06/26 16:22:48;;;;;;;4.38;3.33;;;29.90;90.70;;;;;;2621941;46;20579;31
2023/06/26 16:25:26;;;;;;;5.32;3.20;;;29.80;90.50;;;;;;2603424;54;20026;31
2023/06/26 16:28:10;;;;;;;3.55;3.05;;;29.80;90.60;;;;;;2603521;54;20030;31
2023/06/26 16:30:49;;;;;;;3.60;3.10;;;29.70;91.00;;;;;;2602900;54;20045;31
2023/06/26 16:33:27;;;;;;;4.13;2.92;;;29.70;90.40;;;;;;2602878;54;20038;31
2023/06/26 16:36:06;;;;;;;6.38;2.90;;;29.70;91.00;;;;;;2603559;54;20497;31
2023/06/26 16:38:47;;;;;;;3.55;2.83;;;29.70;91.60;;;;;;2621549;46;20040;31
2023/06/26 16:41:23;;;;;;;4.88;3.30;;;29.70;92.00;;;;;;2602632;54;20034;31
2023/06/26 16:44:00;;;;;;;6.30;3.30;;;29.70;91.90;;;;;;2603411;54;20934;31
2023/06/26 16:46:39;;;;;;;4.15;2.72;;;29.60;91.50;;;;;;2621740;46;20591;31
2023/06/26 16:49:15;;;;;;;3.55;3.20;;;29.60;91.40;;;;;;2603151;54;20034;31
2023/06/26 16:51:56;;;;;;;4.00;3.60;;;29.50;91.20;;;;;;2603655;54;20963;31
2023/06/26 16:54:38;;;;;;;3.90;3.50;;;29.50;91.70;;;;;;2603556;54;20080;31
2023/06/26 16:57:17;;;;;;;4.90;3.10;;;29.40;91.90;;;;;;2603485;54;20052;31
2023/06/26 16:59:52;;;;;;;3.88;3.47;;;29.30;92.30;;;;;;2603217;54;20836;31
2023/06/26 17:02:30;;;;;;;4.25;3.25;;;29.20;92.10;;;;;;2603401;54;20031;31
2023/06/26 17:05:07;;;;;;;5.30;3.80;;;29.20;92.60;;;;;;2603429;54;20172;31
2023/06/26 17:07:43;;;;;;;4.40;3.20;;;29.10;92.40;;;;;;2603213;54;20027;31
2023/06/26 17:10:25;;;;;;;4.50;3.15;;;29.10;93.10;;;;;;2621679;46;20026;31
2023/06/26 17:13:02;;;;;;;7.10;3.97;;;29.00;93.20;;;;;;2621524;46;20027;31
2023/06/26 17:15:38;;;;;;;5.97;3.13;;;28.90;93.70;;;;;;2603091;54;20030;31
2023/06/26 17:18:15;;;;;;;6.50;3.67;;;28.80;93.60;;;;;;2603034;54;20188;31
2023/06/26 17:20:51;;;;;;;3.47;3.17;;;28.90;94.10;;;;;;2603435;54;20026;31
2023/06/26 17:23:32;;;;;;;4.00;3.50;;;28.90;95.20;;;;;;2603149;54;20585;31
2023/06/26 17:26:16;;;;;;;3.63;3.33;;;28.80;93.90;;;;;;2603233;54;20034;31
2023/06/26 17:28:52;;;;;;;5.07;3.50;;;28.80;94.20;;;;;;2602642;54;20034;31
2023/06/26 17:31:31;;;;;;;4.68;3.38;;;28.70;94.80;;;;;;2602269;54;20932;31
2023/06/26 17:34:07;;;;;;;7.28;3.70;;;28.70;95.20;;;;;;2602335;54;20122;31
2023/06/26 17:36:45;;;;;;;5.63;3.80;;;28.70;95.20;;;;;;2602963;54;20768;31
2023/06/26 17:42:03;;;;;;;5.33;3.57;;;28.60;95.70;;;;;;2603028;54;20023;31
2023/06/26 17:44:38;;;;;;;4.43;3.75;;;28.60;96.10;;;;;;2603048;54;20916;31
2023/06/26 17:47:17;;;;;;;4.37;3.40;;;28.60;96.20;;;;;;2603148;54;20870;31
2023/06/26 17:49:54;;;;;;;6.30;3.95;;;28.60;96.10;;;;;;2621585;47;20023;31
2023/06/26 17:52:30;;;;;;;4.82;3.30;;;28.50;96.10;;;;;;2603218;54;20081;31
2023/06/26 17:55:09;;;;;;;6.45;3.42;;;28.50;96.20;;;;;;2603158;54;20145;31
2023/06/26 17:57:48;;;;;;;6.13;3.60;;;28.40;96.10;;;;;;2603002;54;20811;31
2023/06/26 18:00:26;;;;;;;3.38;3.08;;;28.30;95.80;;;;;;2603091;54;20882;31
2023/06/26 18:03:03;;;;;;;3.63;3.33;;;28.30;95.70;;;;;;2602968;54;20549;31
2023/06/26 18:05:44;;;;;;;4.30;3.60;;;28.20;96.30;;;;;;2603013;54;21262;31
2023/06/26 18:08:24;;;;;;;4.53;3.50;;;28.20;96.70;;;;;;2602926;54;19938;31
2023/06/26 18:11:05;;;;;;;4.63;3.00;;;28.10;96.80;;;;;;2603221;54;20030;31
2023/06/26 18:13:44;;;;;;;5.40;3.25;;;28.00;97.10;;;;;;2603145;54;20525;31
2023/06/26 18:16:23;;;;;;;4.90;3.20;;;28.00;97.50;;;;;;2603079;54;20845;31
2023/06/26 18:19:02;;;;;;;5.03;3.30;;;27.90;97.30;;;;;;2602441;54;20022;31
2023/06/26 18:24:29;;;;;;;3.15;2.85;;;27.80;97.40;;;;;;2602438;54;20620;31
2023/06/26 18:27:07;;;;;;;4.25;3.65;;;27.80;97.70;;;;;;2622251;46;20033;31
2023/06/26 18:29:49;;;;;;;4.10;3.60;;;27.70;98.10;;;;;;2604004;54;20851;31
2023/06/26 18:32:29;;;;;;;6.65;3.90;;;27.70;98.00;;;;;;2622242;46;20030;31
2023/06/26 18:35:11;;;;;;;4.78;4.00;;;27.60;98.20;;;;;;2610927;46;20165;31
2023/06/26 18:37:47;;;;;;;6.07;4.10;;;27.60;98.60;;;;;;2622663;46;20022;31
2023/06/26 18:40:27;;;;;;;8.15;4.85;;;27.60;99.00;;;;;;2622205;46;20099;31
2023/06/26 18:43:06;;;;;;;10.23;4.07;;;27.60;99.30;;;;;;2603902;54;21864;31
2023/06/26 18:48:23;;;;;;;4.35;3.45;;;27.50;99.40;;;;;;2603617;54;20029;31
2023/06/26 18:50:59;;;;;;;7.40;4.00;;;27.40;99.50;;;;;;2603788;54;20029;31
2023/06/26 18:53:38;;;;;;;7.55;4.13;;;27.40;99.60;;;;;;2603862;54;20608;31
2023/06/26 18:56:18;;;;;;;7.68;3.72;;;27.30;99.90;;;;;;2603727;54;20034;31
2023/06/26 19:01:31;;;;;;;5.93;4.10;;;27.20;99.90;;;;;;2603151;54;20949;31
2023/06/26 19:04:10;;;;;;;5.78;4.07;;;27.20;99.90;;;;;;2603411;54;21392;31
2023/06/26 19:06:49;;;;;;;4.77;3.70;;;27.10;99.90;;;;;;2602940;54;20038;31
2023/06/26 19:09:27;;;;;;;5.80;4.22;;;27.00;99.90;;;;;;2602926;54;20018;31
2023/06/26 19:12:04;;;;;;;5.65;4.53;;;27.00;99.90;;;;;;2622248;46;20035;31
2023/06/26 19:14:44;;;;;;;8.63;4.28;;;27.00;99.90;;;;;;2602951;54;20864;31
2023/06/26 19:17:22;;;;;;;6.22;4.22;;;27.00;99.90;;;;;;2602952;54;20049;31
2023/06/26 19:20:03;;;;;;;6.22;3.92;;;26.90;99.90;;;;;;2603469;54;20030;31
2023/06/26 19:25:29;;;;;;;7.88;3.88;;;26.90;99.90;;;;;;2621842;46;20631;31
2023/06/26 19:28:04;;;;;;;5.20;3.53;;;26.80;99.90;;;;;;2603600;54;20026;31
2023/06/26 19:30:42;;;;;;;4.70;3.80;;;26.80;99.90;;;;;;2603659;54;20549;31
2023/06/26 19:33:19;;;;;;;5.95;3.58;;;26.80;99.90;;;;;;2621922;46;20073;31
2023/06/26 19:35:58;;;;;;;5.55;4.25;;;26.80;99.90;;;;;;2621928;46;20027;31
2023/06/26 19:38:34;;;;;;;5.82;3.63;;;26.80;99.90;;;;;;2603311;54;20474;31
2023/06/26 19:41:10;;;;;;;6.07;3.55;;;26.70;99.90;;;;;;2603598;54;20027;31
2023/06/26 19:43:49;;;;;;;5.15;3.55;;;26.70;99.90;;;;;;2603438;54;20495;31
2023/06/26 19:46:23;;;;;;;3.88;3.45;;;26.60;99.90;;;;;;2603362;54;20880;31
2023/06/26 19:48:59;;;;;;;4.88;3.40;;;26.60;99.90;;;;;;2603456;54;20022;31
2023/06/26 19:51:38;;;;;;;5.50;3.40;;;26.60;99.90;;;;;;2621952;46;20027;31
2023/06/26 19:54:16;;;;;;;6.30;3.23;;;26.30;99.90;;;;;;2603607;54;20034;31
2023/06/26 19:56:56;;;;;;;11.10;3.00;;;26.10;99.90;;;;;;2603521;54;20030;31
2023/06/26 19:59:32;;;;;;;7.05;3.47;;;25.90;99.90;;;;;;2609024;46;20045;31
2023/06/26 20:02:07;;;;;;;9.27;3.55;;;25.70;99.90;;;;;;2603272;54;19934;31
2023/06/26 20:04:45;;;;;;;11.57;4.00;;;25.50;99.90;;;;;;2621675;46;21028;31
2023/06/26 20:07:25;;;;;;;5.15;2.65;;;25.10;99.90;;;;;;2615254;46;20743;31